<?xml version="1.0" encoding="UTF-8" standalone="no" ?><gpx xmlns="http://www.topografix.com/GPX/1/1" xmlns:gpxx="http://www.garmin.com/xmlschemas/GpxExtensions/v3" xmlns:wptx1="http://www.garmin.com/xmlschemas/WaypointExtension/v1" xmlns:gpxtpx="http://www.garmin.com/xmlschemas/TrackPointExtension/v1" creator="GuideVTT.com" version="1.1" xmlns:xsi="http://www.w3.org/2001/XMLSchema-instance" xsi:schemaLocation="http://www.topografix.com/GPX/1/1 http://www.topografix.com/GPX/1/1/gpx.xsd http://www.garmin.com/xmlschemas/GpxExtensions/v3 http://www8.garmin.com/xmlschemas/GpxExtensionsv3.xsd http://www.garmin.com/xmlschemas/WaypointExtension/v1 http://www8.garmin.com/xmlschemas/WaypointExtensionv1.xsd http://www.garmin.com/xmlschemas/TrackPointExtension/v1 http://www.garmin.com/xmlschemas/TrackPointExtensionv1.xsd">
<metadata><link href="http://www.garmin.com"><text>Garmin International</text></link><time>2013-06-22T15:13:50Z</time></metadata>
<trk><name>ch_gobet_km10.gpx</name><extensions><gpxx:TrackExtension><gpxx:DisplayColor>Cyan</gpxx:DisplayColor></gpxx:TrackExtension></extensions><trkseg>
<trkpt lat="46.564491" lon="6.689647"><ele>867.761</ele><time>2011-09-15T15:41:46Z</time></trkpt>
<trkpt lat="46.564483" lon="6.689513"><ele>867.641</ele><time>2011-09-15T15:41:51Z</time></trkpt>
<trkpt lat="46.564458" lon="6.689414"><ele>867.749</ele><time>2011-09-15T15:41:54Z</time></trkpt>
<trkpt lat="46.564527" lon="6.689339"><ele>867.602</ele><time>2011-09-15T15:41:59Z</time></trkpt>
<trkpt lat="46.564561" lon="6.689238"><ele>867.307</ele><time>2011-09-15T15:42:02Z</time></trkpt>
<trkpt lat="46.564554" lon="6.688853"><ele>867.26</ele><time>2011-09-15T15:42:10Z</time></trkpt>
<trkpt lat="46.564506" lon="6.688490"><ele>866.473</ele><time>2011-09-15T15:42:17Z</time></trkpt>
<trkpt lat="46.564395" lon="6.688015"><ele>866.825</ele><time>2011-09-15T15:42:26Z</time></trkpt>
<trkpt lat="46.564248" lon="6.687531"><ele>866.628</ele><time>2011-09-15T15:42:35Z</time></trkpt>
<trkpt lat="46.564177" lon="6.687321"><ele>866.555</ele><time>2011-09-15T15:42:39Z</time></trkpt>
<trkpt lat="46.564208" lon="6.686998"><ele>866.535</ele><time>2011-09-15T15:42:45Z</time></trkpt>
<trkpt lat="46.564215" lon="6.686876"><ele>867.353</ele><time>2011-09-15T15:42:50Z</time></trkpt>
<trkpt lat="46.564205" lon="6.686734"><ele>868.78</ele><time>2011-09-15T15:42:57Z</time></trkpt>
<trkpt lat="46.564187" lon="6.686628"><ele>869.923</ele><time>2011-09-15T15:43:03Z</time></trkpt>
<trkpt lat="46.564171" lon="6.686555"><ele>870.982</ele><time>2011-09-15T15:43:07Z</time></trkpt>
<trkpt lat="46.564158" lon="6.686491"><ele>871.548</ele><time>2011-09-15T15:43:10Z</time></trkpt>
<trkpt lat="46.564141" lon="6.686367"><ele>872.419</ele><time>2011-09-15T15:43:16Z</time></trkpt>
<trkpt lat="46.564145" lon="6.686289"><ele>873.046</ele><time>2011-09-15T15:43:20Z</time></trkpt>
<trkpt lat="46.564150" lon="6.686154"><ele>874.022</ele><time>2011-09-15T15:43:27Z</time></trkpt>
<trkpt lat="46.564165" lon="6.685996"><ele>875.313</ele><time>2011-09-15T15:43:35Z</time></trkpt>
<trkpt lat="46.564168" lon="6.685860"><ele>876.942</ele><time>2011-09-15T15:43:42Z</time></trkpt>
<trkpt lat="46.564186" lon="6.685742"><ele>878.259</ele><time>2011-09-15T15:43:49Z</time></trkpt>
<trkpt lat="46.564192" lon="6.685601"><ele>879.716</ele><time>2011-09-15T15:43:56Z</time></trkpt>
<trkpt lat="46.564200" lon="6.685440"><ele>881.072</ele><time>2011-09-15T15:44:04Z</time></trkpt>
<trkpt lat="46.564211" lon="6.685271"><ele>882.188</ele><time>2011-09-15T15:44:11Z</time></trkpt>
<trkpt lat="46.564220" lon="6.685010"><ele>881.817</ele><time>2011-09-15T15:44:18Z</time></trkpt>
<trkpt lat="46.564252" lon="6.684694"><ele>881.099</ele><time>2011-09-15T15:44:24Z</time></trkpt>
<trkpt lat="46.564300" lon="6.684220"><ele>881.611</ele><time>2011-09-15T15:44:33Z</time></trkpt>
<trkpt lat="46.564320" lon="6.684022"><ele>881.941</ele><time>2011-09-15T15:44:37Z</time></trkpt>
<trkpt lat="46.564319" lon="6.683973"><ele>881.98</ele><time>2011-09-15T15:44:38Z</time></trkpt>
<trkpt lat="46.564394" lon="6.683876"><ele>881.768</ele><time>2011-09-15T15:44:42Z</time></trkpt>
<trkpt lat="46.564441" lon="6.683919"><ele>881.335</ele><time>2011-09-15T15:44:44Z</time></trkpt>
<trkpt lat="46.564613" lon="6.684127"><ele>880.653</ele><time>2011-09-15T15:44:51Z</time></trkpt>
<trkpt lat="46.564745" lon="6.684265"><ele>880.833</ele><time>2011-09-15T15:44:56Z</time></trkpt>
<trkpt lat="46.564930" lon="6.684425"><ele>880.669</ele><time>2011-09-15T15:45:02Z</time></trkpt>
<trkpt lat="46.565063" lon="6.684503"><ele>880.661</ele><time>2011-09-15T15:45:06Z</time></trkpt>
<trkpt lat="46.565200" lon="6.684600"><ele>880.73</ele><time>2011-09-15T15:45:10Z</time></trkpt>
<trkpt lat="46.565259" lon="6.684491"><ele>881.37</ele><time>2011-09-15T15:45:15Z</time></trkpt>
<trkpt lat="46.565210" lon="6.684268"><ele>881.234</ele><time>2011-09-15T15:45:20Z</time></trkpt>
<trkpt lat="46.565136" lon="6.683881"><ele>880.816</ele><time>2011-09-15T15:45:27Z</time></trkpt>
<trkpt lat="46.565054" lon="6.683448"><ele>880.124</ele><time>2011-09-15T15:45:34Z</time></trkpt>
<trkpt lat="46.564987" lon="6.683058"><ele>879.497</ele><time>2011-09-15T15:45:40Z</time></trkpt>
<trkpt lat="46.564969" lon="6.682921"><ele>878.93</ele><time>2011-09-15T15:45:42Z</time></trkpt>
<trkpt lat="46.564897" lon="6.682571"><ele>876.232</ele><time>2011-09-15T15:45:46Z</time></trkpt>
<trkpt lat="46.564812" lon="6.682042"><ele>872.653</ele><time>2011-09-15T15:45:51Z</time></trkpt>
<trkpt lat="46.564735" lon="6.681510"><ele>870.464</ele><time>2011-09-15T15:45:56Z</time></trkpt>
<trkpt lat="46.564646" lon="6.681028"><ele>869.96</ele><time>2011-09-15T15:46:00Z</time></trkpt>
<trkpt lat="46.564616" lon="6.680811"><ele>871.208</ele><time>2011-09-15T15:46:04Z</time></trkpt>
<trkpt lat="46.564603" lon="6.680617"><ele>871.536</ele><time>2011-09-15T15:46:08Z</time></trkpt>
<trkpt lat="46.564778" lon="6.680314"><ele>868.466</ele><time>2011-09-15T15:46:14Z</time></trkpt>
<trkpt lat="46.564896" lon="6.680127"><ele>866.702</ele><time>2011-09-15T15:46:17Z</time></trkpt>
<trkpt lat="46.565095" lon="6.679719"><ele>865.302</ele><time>2011-09-15T15:46:22Z</time></trkpt>
<trkpt lat="46.565467" lon="6.679295"><ele>862.298</ele><time>2011-09-15T15:46:28Z</time></trkpt>
<trkpt lat="46.565781" lon="6.678985"><ele>861.572</ele><time>2011-09-15T15:46:34Z</time></trkpt>
<trkpt lat="46.566093" lon="6.678909"><ele>859.516</ele><time>2011-09-15T15:46:39Z</time></trkpt>
<trkpt lat="46.566517" lon="6.678630"><ele>855.945</ele><time>2011-09-15T15:46:45Z</time></trkpt>
<trkpt lat="46.566646" lon="6.678525"><ele>855.206</ele><time>2011-09-15T15:46:47Z</time></trkpt>
<trkpt lat="46.566845" lon="6.678230"><ele>854.261</ele><time>2011-09-15T15:46:51Z</time></trkpt>
<trkpt lat="46.566998" lon="6.677832"><ele>855.493</ele><time>2011-09-15T15:46:57Z</time></trkpt>
<trkpt lat="46.567013" lon="6.677778"><ele>855.659</ele><time>2011-09-15T15:46:58Z</time></trkpt>
<trkpt lat="46.567146" lon="6.677558"><ele>855.161</ele><time>2011-09-15T15:47:03Z</time></trkpt>
<trkpt lat="46.567211" lon="6.677464"><ele>855.614</ele><time>2011-09-15T15:47:07Z</time></trkpt>
<trkpt lat="46.567290" lon="6.677373"><ele>855.299</ele><time>2011-09-15T15:47:11Z</time></trkpt>
<trkpt lat="46.567491" lon="6.677178"><ele>855.535</ele><time>2011-09-15T15:47:19Z</time></trkpt>
<trkpt lat="46.567643" lon="6.677121"><ele>856.122</ele><time>2011-09-15T15:47:24Z</time></trkpt>
<trkpt lat="46.567876" lon="6.677075"><ele>857.275</ele><time>2011-09-15T15:47:33Z</time></trkpt>
<trkpt lat="46.567994" lon="6.677088"><ele>857.668</ele><time>2011-09-15T15:47:39Z</time></trkpt>
<trkpt lat="46.568138" lon="6.677051"><ele>858.363</ele><time>2011-09-15T15:47:45Z</time></trkpt>
<trkpt lat="46.568257" lon="6.677026"><ele>858.792</ele><time>2011-09-15T15:47:50Z</time></trkpt>
<trkpt lat="46.568361" lon="6.677015"><ele>859.389</ele><time>2011-09-15T15:47:55Z</time></trkpt>
<trkpt lat="46.568535" lon="6.676986"><ele>860.438</ele><time>2011-09-15T15:48:02Z</time></trkpt>
<trkpt lat="46.568687" lon="6.676958"><ele>860.65</ele><time>2011-09-15T15:48:08Z</time></trkpt>
<trkpt lat="46.568859" lon="6.676930"><ele>861.159</ele><time>2011-09-15T15:48:15Z</time></trkpt>
<trkpt lat="46.569012" lon="6.676903"><ele>861.629</ele><time>2011-09-15T15:48:21Z</time></trkpt>
<trkpt lat="46.569189" lon="6.676877"><ele>861.797</ele><time>2011-09-15T15:48:27Z</time></trkpt>
<trkpt lat="46.569379" lon="6.676828"><ele>862.638</ele><time>2011-09-15T15:48:33Z</time></trkpt>
<trkpt lat="46.569565" lon="6.676779"><ele>862.398</ele><time>2011-09-15T15:48:39Z</time></trkpt>
<trkpt lat="46.569774" lon="6.676766"><ele>862.208</ele><time>2011-09-15T15:48:44Z</time></trkpt>
<trkpt lat="46.569994" lon="6.676770"><ele>862.433</ele><time>2011-09-15T15:48:50Z</time></trkpt>
<trkpt lat="46.570272" lon="6.676777"><ele>862.604</ele><time>2011-09-15T15:48:57Z</time></trkpt>
<trkpt lat="46.570521" lon="6.676780"><ele>862.623</ele><time>2011-09-15T15:49:04Z</time></trkpt>
<trkpt lat="46.570698" lon="6.676756"><ele>862.499</ele><time>2011-09-15T15:49:09Z</time></trkpt>
<trkpt lat="46.570922" lon="6.676741"><ele>862.339</ele><time>2011-09-15T15:49:15Z</time></trkpt>
<trkpt lat="46.571136" lon="6.676723"><ele>862.397</ele><time>2011-09-15T15:49:20Z</time></trkpt>
<trkpt lat="46.571303" lon="6.676701"><ele>863.106</ele><time>2011-09-15T15:49:26Z</time></trkpt>
<trkpt lat="46.571428" lon="6.676688"><ele>864.017</ele><time>2011-09-15T15:49:31Z</time></trkpt>
<trkpt lat="46.571562" lon="6.676656"><ele>864.709</ele><time>2011-09-15T15:49:37Z</time></trkpt>
<trkpt lat="46.571729" lon="6.676577"><ele>865.321</ele><time>2011-09-15T15:49:43Z</time></trkpt>
<trkpt lat="46.571891" lon="6.676501"><ele>864.645</ele><time>2011-09-15T15:49:48Z</time></trkpt>
<trkpt lat="46.572167" lon="6.676450"><ele>863.72</ele><time>2011-09-15T15:49:54Z</time></trkpt>
<trkpt lat="46.572368" lon="6.676512"><ele>863.686</ele><time>2011-09-15T15:49:59Z</time></trkpt>
<trkpt lat="46.572606" lon="6.676605"><ele>863.244</ele><time>2011-09-15T15:50:04Z</time></trkpt>
<trkpt lat="46.572690" lon="6.676656"><ele>863.033</ele><time>2011-09-15T15:50:06Z</time></trkpt>
<trkpt lat="46.572778" lon="6.676712"><ele>862.801</ele><time>2011-09-15T15:50:08Z</time></trkpt>
<trkpt lat="46.572869" lon="6.676759"><ele>862.399</ele><time>2011-09-15T15:50:10Z</time></trkpt>
<trkpt lat="46.573068" lon="6.676827"><ele>861.451</ele><time>2011-09-15T15:50:14Z</time></trkpt>
<trkpt lat="46.573486" lon="6.676867"><ele>860.234</ele><time>2011-09-15T15:50:22Z</time></trkpt>
<trkpt lat="46.573761" lon="6.676882"><ele>859.218</ele><time>2011-09-15T15:50:28Z</time></trkpt>
<trkpt lat="46.573926" lon="6.676864"><ele>858.869</ele><time>2011-09-15T15:50:32Z</time></trkpt>
<trkpt lat="46.573970" lon="6.676864"><ele>858.729</ele><time>2011-09-15T15:50:33Z</time></trkpt>
<trkpt lat="46.574186" lon="6.676823"><ele>858.674</ele><time>2011-09-15T15:50:38Z</time></trkpt>
<trkpt lat="46.574384" lon="6.676810"><ele>858.422</ele><time>2011-09-15T15:50:43Z</time></trkpt>
<trkpt lat="46.574625" lon="6.676906"><ele>858.062</ele><time>2011-09-15T15:50:49Z</time></trkpt>
<trkpt lat="46.574849" lon="6.677102"><ele>857.183</ele><time>2011-09-15T15:50:55Z</time></trkpt>
<trkpt lat="46.574884" lon="6.677133"><ele>857.18</ele><time>2011-09-15T15:50:56Z</time></trkpt>
<trkpt lat="46.575181" lon="6.677318"><ele>856.564</ele><time>2011-09-15T15:51:03Z</time></trkpt>
<trkpt lat="46.575262" lon="6.677376"><ele>856.258</ele><time>2011-09-15T15:51:05Z</time></trkpt>
<trkpt lat="46.575461" lon="6.677572"><ele>855.061</ele><time>2011-09-15T15:51:10Z</time></trkpt>
<trkpt lat="46.575732" lon="6.677835"><ele>852.879</ele><time>2011-09-15T15:51:16Z</time></trkpt>
<trkpt lat="46.575814" lon="6.677913"><ele>852.411</ele><time>2011-09-15T15:51:18Z</time></trkpt>
<trkpt lat="46.576028" lon="6.678157"><ele>850.806</ele><time>2011-09-15T15:51:23Z</time></trkpt>
<trkpt lat="46.576185" lon="6.678284"><ele>849.645</ele><time>2011-09-15T15:51:27Z</time></trkpt>
<trkpt lat="46.576276" lon="6.678347"><ele>848.755</ele><time>2011-09-15T15:51:29Z</time></trkpt>
<trkpt lat="46.576419" lon="6.678456"><ele>847.105</ele><time>2011-09-15T15:51:32Z</time></trkpt>
<trkpt lat="46.576567" lon="6.678541"><ele>845.988</ele><time>2011-09-15T15:51:35Z</time></trkpt>
<trkpt lat="46.576798" lon="6.678691"><ele>844.505</ele><time>2011-09-15T15:51:39Z</time></trkpt>
<trkpt lat="46.576964" lon="6.678844"><ele>843.187</ele><time>2011-09-15T15:51:42Z</time></trkpt>
<trkpt lat="46.577091" lon="6.679023"><ele>842.002</ele><time>2011-09-15T15:51:45Z</time></trkpt>
<trkpt lat="46.577246" lon="6.679286"><ele>840.745</ele><time>2011-09-15T15:51:49Z</time></trkpt>
<trkpt lat="46.577473" lon="6.679473"><ele>838.398</ele><time>2011-09-15T15:51:54Z</time></trkpt>
<trkpt lat="46.577609" lon="6.679560"><ele>837.417</ele><time>2011-09-15T15:51:57Z</time></trkpt>
<trkpt lat="46.577811" lon="6.679637"><ele>835.848</ele><time>2011-09-15T15:52:01Z</time></trkpt>
<trkpt lat="46.577864" lon="6.679657"><ele>835.504</ele><time>2011-09-15T15:52:02Z</time></trkpt>
<trkpt lat="46.578212" lon="6.679711"><ele>833.482</ele><time>2011-09-15T15:52:09Z</time></trkpt>
<trkpt lat="46.578252" lon="6.679624"><ele>833.845</ele><time>2011-09-15T15:52:14Z</time></trkpt>
<trkpt lat="46.578193" lon="6.679530"><ele>834.547</ele><time>2011-09-15T15:52:19Z</time></trkpt>
<trkpt lat="46.578164" lon="6.679507"><ele>834.909</ele><time>2011-09-15T15:52:21Z</time></trkpt>
<trkpt lat="46.578088" lon="6.679380"><ele>836.077</ele><time>2011-09-15T15:52:28Z</time></trkpt>
<trkpt lat="46.578028" lon="6.679290"><ele>836.959</ele><time>2011-09-15T15:52:34Z</time></trkpt>
<trkpt lat="46.577967" lon="6.679195"><ele>837.93</ele><time>2011-09-15T15:52:41Z</time></trkpt>
<trkpt lat="46.577921" lon="6.679129"><ele>838.983</ele><time>2011-09-15T15:52:46Z</time></trkpt>
<trkpt lat="46.577884" lon="6.679058"><ele>839.531</ele><time>2011-09-15T15:52:51Z</time></trkpt>
<trkpt lat="46.577847" lon="6.678955"><ele>840.526</ele><time>2011-09-15T15:52:58Z</time></trkpt>
<trkpt lat="46.577800" lon="6.678818"><ele>841.635</ele><time>2011-09-15T15:53:06Z</time></trkpt>
<trkpt lat="46.577780" lon="6.678730"><ele>842.427</ele><time>2011-09-15T15:53:12Z</time></trkpt>
<trkpt lat="46.577691" lon="6.678573"><ele>843.933</ele><time>2011-09-15T15:53:21Z</time></trkpt>
<trkpt lat="46.577584" lon="6.678447"><ele>844.664</ele><time>2011-09-15T15:53:28Z</time></trkpt>
<trkpt lat="46.577484" lon="6.678317"><ele>845.587</ele><time>2011-09-15T15:53:35Z</time></trkpt>
<trkpt lat="46.577381" lon="6.678219"><ele>846.537</ele><time>2011-09-15T15:53:42Z</time></trkpt>
<trkpt lat="46.577285" lon="6.678096"><ele>847.323</ele><time>2011-09-15T15:53:49Z</time></trkpt>
<trkpt lat="46.577152" lon="6.677963"><ele>848.512</ele><time>2011-09-15T15:53:57Z</time></trkpt>
<trkpt lat="46.577021" lon="6.677847"><ele>849.818</ele><time>2011-09-15T15:54:06Z</time></trkpt>
<trkpt lat="46.576894" lon="6.677735"><ele>850.73</ele><time>2011-09-15T15:54:14Z</time></trkpt>
<trkpt lat="46.576798" lon="6.677655"><ele>851.539</ele><time>2011-09-15T15:54:20Z</time></trkpt>
<trkpt lat="46.576667" lon="6.677493"><ele>851.81</ele><time>2011-09-15T15:54:27Z</time></trkpt>
<trkpt lat="46.576498" lon="6.677218"><ele>852.196</ele><time>2011-09-15T15:54:36Z</time></trkpt>
<trkpt lat="46.576268" lon="6.676886"><ele>852.116</ele><time>2011-09-15T15:54:47Z</time></trkpt>
<trkpt lat="46.576111" lon="6.676682"><ele>852.155</ele><time>2011-09-15T15:54:55Z</time></trkpt>
<trkpt lat="46.576001" lon="6.676556"><ele>852.038</ele><time>2011-09-15T15:55:00Z</time></trkpt>
<trkpt lat="46.575984" lon="6.676521"><ele>851.98</ele><time>2011-09-15T15:55:01Z</time></trkpt>
<trkpt lat="46.576046" lon="6.676459"><ele>851.427</ele><time>2011-09-15T15:55:05Z</time></trkpt>
<trkpt lat="46.576195" lon="6.676454"><ele>850.71</ele><time>2011-09-15T15:55:09Z</time></trkpt>
<trkpt lat="46.576339" lon="6.676412"><ele>849.311</ele><time>2011-09-15T15:55:12Z</time></trkpt>
<trkpt lat="46.576565" lon="6.676291"><ele>847.033</ele><time>2011-09-15T15:55:16Z</time></trkpt>
<trkpt lat="46.576757" lon="6.676249"><ele>845.72</ele><time>2011-09-15T15:55:19Z</time></trkpt>
<trkpt lat="46.576932" lon="6.676258"><ele>846.166</ele><time>2011-09-15T15:55:23Z</time></trkpt>
<trkpt lat="46.577147" lon="6.676303"><ele>847.064</ele><time>2011-09-15T15:55:29Z</time></trkpt>
<trkpt lat="46.577305" lon="6.676362"><ele>846.935</ele><time>2011-09-15T15:55:33Z</time></trkpt>
<trkpt lat="46.577449" lon="6.676424"><ele>847.1</ele><time>2011-09-15T15:55:37Z</time></trkpt>
<trkpt lat="46.577633" lon="6.676475"><ele>848.841</ele><time>2011-09-15T15:55:43Z</time></trkpt>
<trkpt lat="46.577746" lon="6.676516"><ele>850.068</ele><time>2011-09-15T15:55:47Z</time></trkpt>
<trkpt lat="46.577843" lon="6.676549"><ele>850.785</ele><time>2011-09-15T15:55:50Z</time></trkpt>
<trkpt lat="46.577906" lon="6.676565"><ele>851.034</ele><time>2011-09-15T15:55:52Z</time></trkpt>
<trkpt lat="46.577970" lon="6.676581"><ele>851.156</ele><time>2011-09-15T15:55:54Z</time></trkpt>
<trkpt lat="46.578168" lon="6.676639"><ele>851.43</ele><time>2011-09-15T15:56:00Z</time></trkpt>
<trkpt lat="46.578312" lon="6.676763"><ele>851.184</ele><time>2011-09-15T15:56:05Z</time></trkpt>
<trkpt lat="46.578362" lon="6.676843"><ele>851.247</ele><time>2011-09-15T15:56:07Z</time></trkpt>
<trkpt lat="46.578576" lon="6.677220"><ele>850.152</ele><time>2011-09-15T15:56:15Z</time></trkpt>
<trkpt lat="46.578632" lon="6.677323"><ele>849.409</ele><time>2011-09-15T15:56:17Z</time></trkpt>
<trkpt lat="46.578757" lon="6.677525"><ele>847.73</ele><time>2011-09-15T15:56:21Z</time></trkpt>
<trkpt lat="46.578920" lon="6.677783"><ele>845.271</ele><time>2011-09-15T15:56:27Z</time></trkpt>
<trkpt lat="46.579046" lon="6.678007"><ele>842.785</ele><time>2011-09-15T15:56:32Z</time></trkpt>
<trkpt lat="46.579182" lon="6.678231"><ele>839.231</ele><time>2011-09-15T15:56:37Z</time></trkpt>
<trkpt lat="46.579327" lon="6.678436"><ele>835.729</ele><time>2011-09-15T15:56:41Z</time></trkpt>
<trkpt lat="46.579390" lon="6.678550"><ele>834.053</ele><time>2011-09-15T15:56:43Z</time></trkpt>
<trkpt lat="46.579496" lon="6.678692"><ele>831.708</ele><time>2011-09-15T15:56:46Z</time></trkpt>
<trkpt lat="46.579611" lon="6.678859"><ele>829.992</ele><time>2011-09-15T15:56:49Z</time></trkpt>
<trkpt lat="46.579828" lon="6.679228"><ele>825.318</ele><time>2011-09-15T15:56:55Z</time></trkpt>
<trkpt lat="46.580017" lon="6.679509"><ele>821.566</ele><time>2011-09-15T15:57:00Z</time></trkpt>
<trkpt lat="46.580104" lon="6.679775"><ele>818.22</ele><time>2011-09-15T15:57:04Z</time></trkpt>
<trkpt lat="46.580036" lon="6.680241"><ele>812.819</ele><time>2011-09-15T15:57:08Z</time></trkpt>
<trkpt lat="46.579848" lon="6.680741"><ele>812.421</ele><time>2011-09-15T15:57:13Z</time></trkpt>
<trkpt lat="46.579945" lon="6.680906"><ele>812.57</ele><time>2011-09-15T15:57:17Z</time></trkpt>
<trkpt lat="46.579974" lon="6.680968"><ele>812.068</ele><time>2011-09-15T15:57:18Z</time></trkpt>
<trkpt lat="46.580072" lon="6.681163"><ele>810.475</ele><time>2011-09-15T15:57:21Z</time></trkpt>
<trkpt lat="46.580164" lon="6.681486"><ele>808.834</ele><time>2011-09-15T15:57:25Z</time></trkpt>
<trkpt lat="46.580306" lon="6.681674"><ele>807.737</ele><time>2011-09-15T15:57:29Z</time></trkpt>
<trkpt lat="46.580464" lon="6.681628"><ele>807.06</ele><time>2011-09-15T15:57:32Z</time></trkpt>
<trkpt lat="46.580505" lon="6.681590"><ele>807.002</ele><time>2011-09-15T15:57:33Z</time></trkpt>
<trkpt lat="46.580643" lon="6.681421"><ele>807.093</ele><time>2011-09-15T15:57:37Z</time></trkpt>
<trkpt lat="46.580891" lon="6.681168"><ele>806.408</ele><time>2011-09-15T15:57:44Z</time></trkpt>
<trkpt lat="46.581104" lon="6.680940"><ele>807.332</ele><time>2011-09-15T15:57:51Z</time></trkpt>
<trkpt lat="46.581303" lon="6.680726"><ele>807.759</ele><time>2011-09-15T15:57:57Z</time></trkpt>
<trkpt lat="46.581523" lon="6.680489"><ele>807.208</ele><time>2011-09-15T15:58:03Z</time></trkpt>
<trkpt lat="46.581603" lon="6.680423"><ele>807.236</ele><time>2011-09-15T15:58:05Z</time></trkpt>
<trkpt lat="46.581720" lon="6.680323"><ele>807.2</ele><time>2011-09-15T15:58:08Z</time></trkpt>
<trkpt lat="46.581884" lon="6.680111"><ele>807.207</ele><time>2011-09-15T15:58:13Z</time></trkpt>
<trkpt lat="46.582035" lon="6.679969"><ele>807.436</ele><time>2011-09-15T15:58:17Z</time></trkpt>
<trkpt lat="46.582220" lon="6.679804"><ele>807.584</ele><time>2011-09-15T15:58:22Z</time></trkpt>
<trkpt lat="46.582349" lon="6.679742"><ele>807.827</ele><time>2011-09-15T15:58:25Z</time></trkpt>
<trkpt lat="46.582485" lon="6.679642"><ele>808.297</ele><time>2011-09-15T15:58:29Z</time></trkpt>
<trkpt lat="46.582693" lon="6.679508"><ele>809.15</ele><time>2011-09-15T15:58:36Z</time></trkpt>
<trkpt lat="46.582825" lon="6.679378"><ele>809.623</ele><time>2011-09-15T15:58:40Z</time></trkpt>
<trkpt lat="46.583004" lon="6.679251"><ele>810.007</ele><time>2011-09-15T15:58:45Z</time></trkpt>
<trkpt lat="46.583271" lon="6.679159"><ele>810.907</ele><time>2011-09-15T15:58:52Z</time></trkpt>
<trkpt lat="46.583498" lon="6.679244"><ele>811.923</ele><time>2011-09-15T15:58:59Z</time></trkpt>
<trkpt lat="46.583678" lon="6.679309"><ele>812.963</ele><time>2011-09-15T15:59:05Z</time></trkpt>
<trkpt lat="46.583909" lon="6.679343"><ele>813.908</ele><time>2011-09-15T15:59:14Z</time></trkpt>
<trkpt lat="46.584125" lon="6.679323"><ele>814.978</ele><time>2011-09-15T15:59:23Z</time></trkpt>
<trkpt lat="46.584262" lon="6.679246"><ele>815.934</ele><time>2011-09-15T15:59:29Z</time></trkpt>
<trkpt lat="46.584420" lon="6.679128"><ele>816.641</ele><time>2011-09-15T15:59:36Z</time></trkpt>
<trkpt lat="46.584551" lon="6.678989"><ele>817.29</ele><time>2011-09-15T15:59:42Z</time></trkpt>
<trkpt lat="46.584747" lon="6.678699"><ele>817.948</ele><time>2011-09-15T15:59:52Z</time></trkpt>
<trkpt lat="46.584890" lon="6.678493"><ele>818.307</ele><time>2011-09-15T15:59:59Z</time></trkpt>
<trkpt lat="46.585065" lon="6.678313"><ele>819.7</ele><time>2011-09-15T16:00:07Z</time></trkpt>
<trkpt lat="46.585085" lon="6.678299"><ele>819.81</ele><time>2011-09-15T16:00:08Z</time></trkpt>
<trkpt lat="46.585142" lon="6.678379"><ele>820.172</ele><time>2011-09-15T16:00:13Z</time></trkpt>
<trkpt lat="46.585137" lon="6.678422"><ele>820.075</ele><time>2011-09-15T16:00:14Z</time></trkpt>
<trkpt lat="46.585158" lon="6.678687"><ele>818.046</ele><time>2011-09-15T16:00:20Z</time></trkpt>
<trkpt lat="46.585305" lon="6.678843"><ele>815.123</ele><time>2011-09-15T16:00:24Z</time></trkpt>
<trkpt lat="46.585440" lon="6.678959"><ele>813.533</ele><time>2011-09-15T16:00:26Z</time></trkpt>
<trkpt lat="46.585624" lon="6.679156"><ele>810.029</ele><time>2011-09-15T16:00:30Z</time></trkpt>
<trkpt lat="46.585782" lon="6.679458"><ele>808.098</ele><time>2011-09-15T16:00:34Z</time></trkpt>
<trkpt lat="46.585839" lon="6.679758"><ele>807.913</ele><time>2011-09-15T16:00:38Z</time></trkpt>
<trkpt lat="46.585767" lon="6.679936"><ele>807.067</ele><time>2011-09-15T16:00:41Z</time></trkpt>
<trkpt lat="46.585613" lon="6.680069"><ele>804.933</ele><time>2011-09-15T16:00:44Z</time></trkpt>
<trkpt lat="46.585140" lon="6.680250"><ele>800.846</ele><time>2011-09-15T16:00:51Z</time></trkpt>
<trkpt lat="46.585067" lon="6.680277"><ele>800.543</ele><time>2011-09-15T16:00:52Z</time></trkpt>
<trkpt lat="46.584799" lon="6.680397"><ele>799.977</ele><time>2011-09-15T16:00:56Z</time></trkpt>
<trkpt lat="46.584555" lon="6.680602"><ele>799.443</ele><time>2011-09-15T16:01:00Z</time></trkpt>
<trkpt lat="46.584219" lon="6.680908"><ele>797.287</ele><time>2011-09-15T16:01:05Z</time></trkpt>
<trkpt lat="46.583993" lon="6.680933"><ele>795.541</ele><time>2011-09-15T16:01:09Z</time></trkpt>
<trkpt lat="46.583861" lon="6.680924"><ele>794.557</ele><time>2011-09-15T16:01:11Z</time></trkpt>
<trkpt lat="46.583575" lon="6.681071"><ele>792.31</ele><time>2011-09-15T16:01:15Z</time></trkpt>
<trkpt lat="46.583287" lon="6.681329"><ele>792.971</ele><time>2011-09-15T16:01:19Z</time></trkpt>
<trkpt lat="46.583116" lon="6.681566"><ele>795.074</ele><time>2011-09-15T16:01:23Z</time></trkpt>
<trkpt lat="46.583016" lon="6.681736"><ele>796.455</ele><time>2011-09-15T16:01:27Z</time></trkpt>
<trkpt lat="46.583101" lon="6.681891"><ele>796.647</ele><time>2011-09-15T16:01:32Z</time></trkpt>
<trkpt lat="46.583248" lon="6.681915"><ele>795.491</ele><time>2011-09-15T16:01:35Z</time></trkpt>
<trkpt lat="46.583403" lon="6.681923"><ele>793.645</ele><time>2011-09-15T16:01:38Z</time></trkpt>
<trkpt lat="46.583676" lon="6.681974"><ele>791.742</ele><time>2011-09-15T16:01:42Z</time></trkpt>
<trkpt lat="46.584031" lon="6.682030"><ele>790.232</ele><time>2011-09-15T16:01:47Z</time></trkpt>
<trkpt lat="46.584526" lon="6.682086"><ele>789.041</ele><time>2011-09-15T16:01:54Z</time></trkpt>
<trkpt lat="46.584694" lon="6.682111"><ele>789.157</ele><time>2011-09-15T16:01:57Z</time></trkpt>
<trkpt lat="46.584931" lon="6.682116"><ele>789.526</ele><time>2011-09-15T16:02:02Z</time></trkpt>
<trkpt lat="46.585101" lon="6.682125"><ele>790.728</ele><time>2011-09-15T16:02:07Z</time></trkpt>
<trkpt lat="46.585373" lon="6.682174"><ele>790.753</ele><time>2011-09-15T16:02:14Z</time></trkpt>
<trkpt lat="46.585442" lon="6.682184"><ele>790.804</ele><time>2011-09-15T16:02:16Z</time></trkpt>
<trkpt lat="46.585609" lon="6.682205"><ele>791.461</ele><time>2011-09-15T16:02:21Z</time></trkpt>
<trkpt lat="46.585784" lon="6.682256"><ele>791.97</ele><time>2011-09-15T16:02:26Z</time></trkpt>
<trkpt lat="46.585930" lon="6.682316"><ele>792.091</ele><time>2011-09-15T16:02:30Z</time></trkpt>
<trkpt lat="46.586022" lon="6.682361"><ele>792.169</ele><time>2011-09-15T16:02:32Z</time></trkpt>
<trkpt lat="46.586326" lon="6.682533"><ele>792.808</ele><time>2011-09-15T16:02:40Z</time></trkpt>
<trkpt lat="46.586580" lon="6.682655"><ele>793.13</ele><time>2011-09-15T16:02:48Z</time></trkpt>
<trkpt lat="46.586730" lon="6.682677"><ele>793.487</ele><time>2011-09-15T16:02:53Z</time></trkpt>
<trkpt lat="46.586934" lon="6.682637"><ele>794.436</ele><time>2011-09-15T16:03:00Z</time></trkpt>
<trkpt lat="46.587138" lon="6.682592"><ele>794.656</ele><time>2011-09-15T16:03:07Z</time></trkpt>
<trkpt lat="46.587273" lon="6.682556"><ele>795.122</ele><time>2011-09-15T16:03:12Z</time></trkpt>
<trkpt lat="46.587499" lon="6.682495"><ele>796.277</ele><time>2011-09-15T16:03:20Z</time></trkpt>
<trkpt lat="46.587682" lon="6.682472"><ele>797.035</ele><time>2011-09-15T16:03:27Z</time></trkpt>
<trkpt lat="46.587934" lon="6.682510"><ele>797.658</ele><time>2011-09-15T16:03:36Z</time></trkpt>
<trkpt lat="46.588117" lon="6.682541"><ele>799.472</ele><time>2011-09-15T16:03:44Z</time></trkpt>
<trkpt lat="46.588293" lon="6.682568"><ele>800.545</ele><time>2011-09-15T16:03:52Z</time></trkpt>
<trkpt lat="46.588448" lon="6.682597"><ele>801.274</ele><time>2011-09-15T16:04:01Z</time></trkpt>
<trkpt lat="46.588584" lon="6.682645"><ele>802.456</ele><time>2011-09-15T16:04:08Z</time></trkpt>
<trkpt lat="46.588729" lon="6.682739"><ele>803.157</ele><time>2011-09-15T16:04:16Z</time></trkpt>
<trkpt lat="46.588910" lon="6.682897"><ele>804.596</ele><time>2011-09-15T16:04:26Z</time></trkpt>
<trkpt lat="46.589069" lon="6.683053"><ele>806.097</ele><time>2011-09-15T16:04:35Z</time></trkpt>
<trkpt lat="46.589229" lon="6.683183"><ele>807.268</ele><time>2011-09-15T16:04:44Z</time></trkpt>
<trkpt lat="46.589362" lon="6.683261"><ele>808.224</ele><time>2011-09-15T16:04:52Z</time></trkpt>
<trkpt lat="46.589504" lon="6.683292"><ele>809.606</ele><time>2011-09-15T16:05:00Z</time></trkpt>
<trkpt lat="46.589630" lon="6.683282"><ele>810.516</ele><time>2011-09-15T16:05:07Z</time></trkpt>
<trkpt lat="46.589758" lon="6.683273"><ele>811.298</ele><time>2011-09-15T16:05:15Z</time></trkpt>
<trkpt lat="46.589938" lon="6.683250"><ele>812.717</ele><time>2011-09-15T16:05:25Z</time></trkpt>
<trkpt lat="46.590162" lon="6.683228"><ele>814.118</ele><time>2011-09-15T16:05:37Z</time></trkpt>
<trkpt lat="46.590367" lon="6.683212"><ele>815.354</ele><time>2011-09-15T16:05:48Z</time></trkpt>
<trkpt lat="46.590514" lon="6.683214"><ele>816.282</ele><time>2011-09-15T16:05:56Z</time></trkpt>
<trkpt lat="46.590679" lon="6.683266"><ele>817.562</ele><time>2011-09-15T16:06:05Z</time></trkpt>
<trkpt lat="46.590871" lon="6.683349"><ele>818.791</ele><time>2011-09-15T16:06:15Z</time></trkpt>
<trkpt lat="46.591013" lon="6.683438"><ele>820.045</ele><time>2011-09-15T16:06:23Z</time></trkpt>
<trkpt lat="46.591123" lon="6.683592"><ele>820.971</ele><time>2011-09-15T16:06:31Z</time></trkpt>
<trkpt lat="46.591175" lon="6.683788"><ele>822.232</ele><time>2011-09-15T16:06:39Z</time></trkpt>
<trkpt lat="46.591160" lon="6.684029"><ele>823.042</ele><time>2011-09-15T16:06:48Z</time></trkpt>
<trkpt lat="46.591081" lon="6.684227"><ele>824.086</ele><time>2011-09-15T16:06:56Z</time></trkpt>
<trkpt lat="46.590942" lon="6.684352"><ele>825.808</ele><time>2011-09-15T16:07:05Z</time></trkpt>
<trkpt lat="46.590771" lon="6.684381"><ele>826.953</ele><time>2011-09-15T16:07:14Z</time></trkpt>
<trkpt lat="46.590519" lon="6.684409"><ele>827.833</ele><time>2011-09-15T16:07:26Z</time></trkpt>
<trkpt lat="46.590335" lon="6.684424"><ele>828.688</ele><time>2011-09-15T16:07:34Z</time></trkpt>
<trkpt lat="46.590045" lon="6.684447"><ele>829.182</ele><time>2011-09-15T16:07:45Z</time></trkpt>
<trkpt lat="46.589807" lon="6.684453"><ele>830.062</ele><time>2011-09-15T16:07:54Z</time></trkpt>
<trkpt lat="46.589653" lon="6.684446"><ele>830.587</ele><time>2011-09-15T16:08:00Z</time></trkpt>
<trkpt lat="46.589402" lon="6.684445"><ele>830.815</ele><time>2011-09-15T16:08:09Z</time></trkpt>
<trkpt lat="46.589046" lon="6.684425"><ele>831.625</ele><time>2011-09-15T16:08:22Z</time></trkpt>
<trkpt lat="46.588854" lon="6.684396"><ele>832.274</ele><time>2011-09-15T16:08:29Z</time></trkpt>
<trkpt lat="46.588543" lon="6.684332"><ele>833.098</ele><time>2011-09-15T16:08:39Z</time></trkpt>
<trkpt lat="46.588365" lon="6.684346"><ele>833.565</ele><time>2011-09-15T16:08:46Z</time></trkpt>
<trkpt lat="46.588167" lon="6.684353"><ele>834.519</ele><time>2011-09-15T16:08:54Z</time></trkpt>
<trkpt lat="46.587992" lon="6.684371"><ele>834.624</ele><time>2011-09-15T16:09:01Z</time></trkpt>
<trkpt lat="46.587864" lon="6.684481"><ele>834.928</ele><time>2011-09-15T16:09:06Z</time></trkpt>
<trkpt lat="46.587733" lon="6.684722"><ele>834.911</ele><time>2011-09-15T16:09:12Z</time></trkpt>
<trkpt lat="46.587678" lon="6.684897"><ele>835.072</ele><time>2011-09-15T16:09:16Z</time></trkpt>
<trkpt lat="46.587671" lon="6.685185"><ele>835.35</ele><time>2011-09-15T16:09:22Z</time></trkpt>
<trkpt lat="46.587627" lon="6.685453"><ele>836.004</ele><time>2011-09-15T16:09:28Z</time></trkpt>
<trkpt lat="46.587585" lon="6.685667"><ele>836.365</ele><time>2011-09-15T16:09:33Z</time></trkpt>
<trkpt lat="46.587538" lon="6.685825"><ele>836.695</ele><time>2011-09-15T16:09:37Z</time></trkpt>
<trkpt lat="46.587467" lon="6.686023"><ele>837.099</ele><time>2011-09-15T16:09:42Z</time></trkpt>
<trkpt lat="46.587383" lon="6.686215"><ele>837.974</ele><time>2011-09-15T16:09:47Z</time></trkpt>
<trkpt lat="46.587267" lon="6.686424"><ele>838.027</ele><time>2011-09-15T16:09:53Z</time></trkpt>
<trkpt lat="46.587158" lon="6.686511"><ele>838.201</ele><time>2011-09-15T16:09:58Z</time></trkpt>
<trkpt lat="46.586980" lon="6.686486"><ele>839.32</ele><time>2011-09-15T16:10:05Z</time></trkpt>
<trkpt lat="46.586845" lon="6.686378"><ele>839.793</ele><time>2011-09-15T16:10:11Z</time></trkpt>
<trkpt lat="46.586734" lon="6.686211"><ele>839.981</ele><time>2011-09-15T16:10:17Z</time></trkpt>
<trkpt lat="46.586640" lon="6.685987"><ele>840.84</ele><time>2011-09-15T16:10:25Z</time></trkpt>
<trkpt lat="46.586566" lon="6.685791"><ele>841.272</ele><time>2011-09-15T16:10:32Z</time></trkpt>
<trkpt lat="46.586446" lon="6.685611"><ele>841.694</ele><time>2011-09-15T16:10:38Z</time></trkpt>
<trkpt lat="46.586249" lon="6.685463"><ele>842.092</ele><time>2011-09-15T16:10:45Z</time></trkpt>
<trkpt lat="46.586080" lon="6.685465"><ele>842.685</ele><time>2011-09-15T16:10:51Z</time></trkpt>
<trkpt lat="46.585911" lon="6.685487"><ele>843.074</ele><time>2011-09-15T16:10:57Z</time></trkpt>
<trkpt lat="46.585762" lon="6.685514"><ele>843.349</ele><time>2011-09-15T16:11:03Z</time></trkpt>
<trkpt lat="46.585667" lon="6.685507"><ele>843.553</ele><time>2011-09-15T16:11:07Z</time></trkpt>
<trkpt lat="46.585547" lon="6.685512"><ele>844.191</ele><time>2011-09-15T16:11:12Z</time></trkpt>
<trkpt lat="46.585316" lon="6.685470"><ele>844.616</ele><time>2011-09-15T16:11:19Z</time></trkpt>
<trkpt lat="46.585113" lon="6.685492"><ele>845.293</ele><time>2011-09-15T16:11:26Z</time></trkpt>
<trkpt lat="46.584933" lon="6.685530"><ele>845.737</ele><time>2011-09-15T16:11:32Z</time></trkpt>
<trkpt lat="46.584682" lon="6.685632"><ele>846.416</ele><time>2011-09-15T16:11:41Z</time></trkpt>
<trkpt lat="46.584444" lon="6.685800"><ele>847.368</ele><time>2011-09-15T16:11:50Z</time></trkpt>
<trkpt lat="46.584210" lon="6.685964"><ele>848.126</ele><time>2011-09-15T16:11:59Z</time></trkpt>
<trkpt lat="46.584008" lon="6.686103"><ele>848.635</ele><time>2011-09-15T16:12:07Z</time></trkpt>
<trkpt lat="46.583802" lon="6.686279"><ele>849.492</ele><time>2011-09-15T16:12:16Z</time></trkpt>
<trkpt lat="46.583568" lon="6.686496"><ele>850.35</ele><time>2011-09-15T16:12:26Z</time></trkpt>
<trkpt lat="46.583369" lon="6.686723"><ele>851.272</ele><time>2011-09-15T16:12:35Z</time></trkpt>
<trkpt lat="46.583193" lon="6.686988"><ele>851.79</ele><time>2011-09-15T16:12:44Z</time></trkpt>
<trkpt lat="46.583020" lon="6.687257"><ele>852.299</ele><time>2011-09-15T16:12:53Z</time></trkpt>
<trkpt lat="46.582875" lon="6.687502"><ele>853.773</ele><time>2011-09-15T16:13:01Z</time></trkpt>
<trkpt lat="46.582818" lon="6.687805"><ele>854.629</ele><time>2011-09-15T16:13:09Z</time></trkpt>
<trkpt lat="46.582857" lon="6.688169"><ele>855.156</ele><time>2011-09-15T16:13:18Z</time></trkpt>
<trkpt lat="46.582866" lon="6.688453"><ele>855.598</ele><time>2011-09-15T16:13:25Z</time></trkpt>
<trkpt lat="46.582822" lon="6.688703"><ele>856.169</ele><time>2011-09-15T16:13:31Z</time></trkpt>
<trkpt lat="46.582755" lon="6.688972"><ele>856.685</ele><time>2011-09-15T16:13:38Z</time></trkpt>
<trkpt lat="46.582702" lon="6.689220"><ele>857.015</ele><time>2011-09-15T16:13:44Z</time></trkpt>
<trkpt lat="46.582605" lon="6.689556"><ele>857.584</ele><time>2011-09-15T16:13:53Z</time></trkpt>
<trkpt lat="46.582522" lon="6.689865"><ele>858.167</ele><time>2011-09-15T16:14:01Z</time></trkpt>
<trkpt lat="46.582449" lon="6.690146"><ele>858.211</ele><time>2011-09-15T16:14:08Z</time></trkpt>
<trkpt lat="46.582384" lon="6.690488"><ele>859.136</ele><time>2011-09-15T16:14:16Z</time></trkpt>
<trkpt lat="46.582325" lon="6.690781"><ele>859.691</ele><time>2011-09-15T16:14:23Z</time></trkpt>
<trkpt lat="46.582237" lon="6.691066"><ele>859.936</ele><time>2011-09-15T16:14:30Z</time></trkpt>
<trkpt lat="46.582156" lon="6.691405"><ele>860.581</ele><time>2011-09-15T16:14:38Z</time></trkpt>
<trkpt lat="46.582118" lon="6.691545"><ele>860.435</ele><time>2011-09-15T16:14:41Z</time></trkpt>
<trkpt lat="46.582127" lon="6.691782"><ele>859.262</ele><time>2011-09-15T16:14:45Z</time></trkpt>
<trkpt lat="46.582168" lon="6.691941"><ele>858.744</ele><time>2011-09-15T16:14:48Z</time></trkpt>
<trkpt lat="46.582343" lon="6.692271"><ele>857.47</ele><time>2011-09-15T16:14:53Z</time></trkpt>
<trkpt lat="46.582589" lon="6.692686"><ele>855.317</ele><time>2011-09-15T16:14:59Z</time></trkpt>
<trkpt lat="46.582868" lon="6.693181"><ele>854.083</ele><time>2011-09-15T16:15:06Z</time></trkpt>
<trkpt lat="46.582949" lon="6.693326"><ele>853.674</ele><time>2011-09-15T16:15:08Z</time></trkpt>
<trkpt lat="46.583014" lon="6.693490"><ele>853.194</ele><time>2011-09-15T16:15:10Z</time></trkpt>
<trkpt lat="46.583016" lon="6.693762"><ele>852.691</ele><time>2011-09-15T16:15:13Z</time></trkpt>
<trkpt lat="46.582896" lon="6.693965"><ele>852.275</ele><time>2011-09-15T16:15:16Z</time></trkpt>
<trkpt lat="46.582843" lon="6.694010"><ele>852.123</ele><time>2011-09-15T16:15:17Z</time></trkpt>
<trkpt lat="46.582560" lon="6.694268"><ele>851.764</ele><time>2011-09-15T16:15:23Z</time></trkpt>
<trkpt lat="46.582463" lon="6.694441"><ele>851.675</ele><time>2011-09-15T16:15:26Z</time></trkpt>
<trkpt lat="46.582386" lon="6.694629"><ele>851.264</ele><time>2011-09-15T16:15:29Z</time></trkpt>
<trkpt lat="46.582348" lon="6.694767"><ele>851.02</ele><time>2011-09-15T16:15:31Z</time></trkpt>
<trkpt lat="46.582273" lon="6.694968"><ele>850.435</ele><time>2011-09-15T16:15:34Z</time></trkpt>
<trkpt lat="46.582063" lon="6.695159"><ele>849.446</ele><time>2011-09-15T16:15:39Z</time></trkpt>
<trkpt lat="46.582023" lon="6.695157"><ele>849.446</ele><time>2011-09-15T16:15:40Z</time></trkpt>
<trkpt lat="46.581816" lon="6.695022"><ele>850.278</ele><time>2011-09-15T16:15:45Z</time></trkpt>
<trkpt lat="46.581708" lon="6.694867"><ele>851.301</ele><time>2011-09-15T16:15:50Z</time></trkpt>
<trkpt lat="46.581581" lon="6.694617"><ele>852.161</ele><time>2011-09-15T16:15:56Z</time></trkpt>
<trkpt lat="46.581473" lon="6.694422"><ele>852.66</ele><time>2011-09-15T16:16:01Z</time></trkpt>
<trkpt lat="46.581371" lon="6.694226"><ele>853.111</ele><time>2011-09-15T16:16:06Z</time></trkpt>
<trkpt lat="46.581282" lon="6.694049"><ele>853.811</ele><time>2011-09-15T16:16:10Z</time></trkpt>
<trkpt lat="46.581143" lon="6.693813"><ele>854.16</ele><time>2011-09-15T16:16:15Z</time></trkpt>
<trkpt lat="46.580952" lon="6.693568"><ele>854.519</ele><time>2011-09-15T16:16:21Z</time></trkpt>
<trkpt lat="46.580745" lon="6.693392"><ele>855.095</ele><time>2011-09-15T16:16:27Z</time></trkpt>
<trkpt lat="46.580437" lon="6.693247"><ele>856.291</ele><time>2011-09-15T16:16:36Z</time></trkpt>
<trkpt lat="46.580241" lon="6.693178"><ele>857.065</ele><time>2011-09-15T16:16:43Z</time></trkpt>
<trkpt lat="46.580086" lon="6.693159"><ele>857.655</ele><time>2011-09-15T16:16:49Z</time></trkpt>
<trkpt lat="46.579870" lon="6.693101"><ele>857.984</ele><time>2011-09-15T16:16:56Z</time></trkpt>
<trkpt lat="46.579656" lon="6.693046"><ele>858.106</ele><time>2011-09-15T16:17:03Z</time></trkpt>
<trkpt lat="46.579471" lon="6.692990"><ele>858.62</ele><time>2011-09-15T16:17:09Z</time></trkpt>
<trkpt lat="46.579236" lon="6.692933"><ele>858.728</ele><time>2011-09-15T16:17:16Z</time></trkpt>
<trkpt lat="46.579070" lon="6.692930"><ele>859.079</ele><time>2011-09-15T16:17:22Z</time></trkpt>
<trkpt lat="46.578916" lon="6.692943"><ele>859.65</ele><time>2011-09-15T16:17:27Z</time></trkpt>
<trkpt lat="46.578747" lon="6.693004"><ele>860.137</ele><time>2011-09-15T16:17:33Z</time></trkpt>
<trkpt lat="46.578588" lon="6.693100"><ele>860.416</ele><time>2011-09-15T16:17:38Z</time></trkpt>
<trkpt lat="46.578439" lon="6.693215"><ele>860.406</ele><time>2011-09-15T16:17:43Z</time></trkpt>
<trkpt lat="46.578303" lon="6.693309"><ele>861.01</ele><time>2011-09-15T16:17:48Z</time></trkpt>
<trkpt lat="46.578131" lon="6.693392"><ele>861.1</ele><time>2011-09-15T16:17:53Z</time></trkpt>
<trkpt lat="46.578006" lon="6.693449"><ele>861.444</ele><time>2011-09-15T16:17:57Z</time></trkpt>
<trkpt lat="46.577792" lon="6.693537"><ele>862.057</ele><time>2011-09-15T16:18:03Z</time></trkpt>
<trkpt lat="46.577648" lon="6.693591"><ele>862.466</ele><time>2011-09-15T16:18:09Z</time></trkpt>
<trkpt lat="46.577507" lon="6.693583"><ele>862.8</ele><time>2011-09-15T16:18:14Z</time></trkpt>
<trkpt lat="46.577284" lon="6.693535"><ele>862.999</ele><time>2011-09-15T16:18:21Z</time></trkpt>
<trkpt lat="46.577160" lon="6.693447"><ele>863.083</ele><time>2011-09-15T16:18:26Z</time></trkpt>
<trkpt lat="46.577152" lon="6.693400"><ele>862.922</ele><time>2011-09-15T16:18:27Z</time></trkpt>
<trkpt lat="46.577157" lon="6.693286"><ele>862.312</ele><time>2011-09-15T16:18:29Z</time></trkpt>
<trkpt lat="46.577211" lon="6.693167"><ele>861.151</ele><time>2011-09-15T16:18:31Z</time></trkpt>
<trkpt lat="46.577342" lon="6.692811"><ele>857.435</ele><time>2011-09-15T16:18:35Z</time></trkpt>
<trkpt lat="46.577353" lon="6.692696"><ele>857.44</ele><time>2011-09-15T16:18:36Z</time></trkpt>
<trkpt lat="46.577320" lon="6.692307"><ele>854.865</ele><time>2011-09-15T16:18:39Z</time></trkpt>
<trkpt lat="46.577148" lon="6.692018"><ele>852.323</ele><time>2011-09-15T16:18:42Z</time></trkpt>
<trkpt lat="46.576914" lon="6.691877"><ele>850.924</ele><time>2011-09-15T16:18:45Z</time></trkpt>
<trkpt lat="46.576588" lon="6.691775"><ele>850.282</ele><time>2011-09-15T16:18:49Z</time></trkpt>
<trkpt lat="46.576361" lon="6.691606"><ele>850.889</ele><time>2011-09-15T16:18:53Z</time></trkpt>
<trkpt lat="46.576316" lon="6.691533"><ele>850.583</ele><time>2011-09-15T16:18:54Z</time></trkpt>
<trkpt lat="46.576195" lon="6.691243"><ele>848.817</ele><time>2011-09-15T16:18:58Z</time></trkpt>
<trkpt lat="46.576085" lon="6.691095"><ele>847.19</ele><time>2011-09-15T16:19:01Z</time></trkpt>
<trkpt lat="46.575899" lon="6.690940"><ele>843.865</ele><time>2011-09-15T16:19:04Z</time></trkpt>
<trkpt lat="46.575800" lon="6.690836"><ele>843.158</ele><time>2011-09-15T16:19:06Z</time></trkpt>
<trkpt lat="46.575632" lon="6.690746"><ele>844.088</ele><time>2011-09-15T16:19:09Z</time></trkpt>
<trkpt lat="46.575383" lon="6.690708"><ele>844.732</ele><time>2011-09-15T16:19:14Z</time></trkpt>
<trkpt lat="46.575265" lon="6.690696"><ele>846.228</ele><time>2011-09-15T16:19:18Z</time></trkpt>
<trkpt lat="46.575149" lon="6.690684"><ele>846.945</ele><time>2011-09-15T16:19:23Z</time></trkpt>
<trkpt lat="46.574991" lon="6.690652"><ele>847.844</ele><time>2011-09-15T16:19:30Z</time></trkpt>
<trkpt lat="46.574822" lon="6.690627"><ele>849.029</ele><time>2011-09-15T16:19:38Z</time></trkpt>
<trkpt lat="46.574682" lon="6.690585"><ele>850.083</ele><time>2011-09-15T16:19:44Z</time></trkpt>
<trkpt lat="46.574616" lon="6.690586"><ele>850.568</ele><time>2011-09-15T16:19:48Z</time></trkpt>
<trkpt lat="46.574458" lon="6.690729"><ele>851.717</ele><time>2011-09-15T16:21:15Z</time></trkpt>
<trkpt lat="46.574474" lon="6.690723"><ele>851.849</ele><time>2011-09-15T16:21:26Z</time></trkpt>
<trkpt lat="46.574442" lon="6.690617"><ele>852.208</ele><time>2011-09-15T16:21:38Z</time></trkpt>
<trkpt lat="46.574382" lon="6.690563"><ele>851.887</ele><time>2011-09-15T16:21:46Z</time></trkpt>
<trkpt lat="46.574334" lon="6.690543"><ele>852.597</ele><time>2011-09-15T16:21:52Z</time></trkpt>
<trkpt lat="46.574241" lon="6.690542"><ele>853.245</ele><time>2011-09-15T16:21:58Z</time></trkpt>
<trkpt lat="46.574233" lon="6.690549"><ele>853.391</ele><time>2011-09-15T16:21:59Z</time></trkpt>
<trkpt lat="46.574161" lon="6.690553"><ele>853.981</ele><time>2011-09-15T16:22:05Z</time></trkpt>
<trkpt lat="46.574136" lon="6.690557"><ele>854.526</ele><time>2011-09-15T16:22:08Z</time></trkpt>
<trkpt lat="46.574097" lon="6.690567"><ele>855.398</ele><time>2011-09-15T16:22:12Z</time></trkpt>
<trkpt lat="46.574028" lon="6.690549"><ele>856.262</ele><time>2011-09-15T16:22:16Z</time></trkpt>
<trkpt lat="46.573989" lon="6.690555"><ele>856.979</ele><time>2011-09-15T16:22:19Z</time></trkpt>
<trkpt lat="46.573892" lon="6.690616"><ele>857.983</ele><time>2011-09-15T16:22:26Z</time></trkpt>
<trkpt lat="46.573810" lon="6.690667"><ele>858.884</ele><time>2011-09-15T16:22:32Z</time></trkpt>
<trkpt lat="46.573717" lon="6.690753"><ele>860.153</ele><time>2011-09-15T16:22:39Z</time></trkpt>
<trkpt lat="46.573592" lon="6.690845"><ele>861.707</ele><time>2011-09-15T16:22:47Z</time></trkpt>
<trkpt lat="46.573544" lon="6.690852"><ele>861.851</ele><time>2011-09-15T16:22:49Z</time></trkpt>
<trkpt lat="46.573451" lon="6.690910"><ele>863.013</ele><time>2011-09-15T16:22:54Z</time></trkpt>
<trkpt lat="46.573333" lon="6.690981"><ele>864.191</ele><time>2011-09-15T16:22:59Z</time></trkpt>
<trkpt lat="46.573343" lon="6.691035"><ele>864.744</ele><time>2011-09-15T16:23:04Z</time></trkpt>
<trkpt lat="46.573495" lon="6.691106"><ele>864.499</ele><time>2011-09-15T16:23:09Z</time></trkpt>
<trkpt lat="46.573683" lon="6.691181"><ele>864.289</ele><time>2011-09-15T16:23:15Z</time></trkpt>
<trkpt lat="46.573902" lon="6.691338"><ele>864.288</ele><time>2011-09-15T16:23:23Z</time></trkpt>
<trkpt lat="46.574031" lon="6.691506"><ele>864.611</ele><time>2011-09-15T16:23:29Z</time></trkpt>
<trkpt lat="46.574119" lon="6.691638"><ele>865.395</ele><time>2011-09-15T16:23:34Z</time></trkpt>
<trkpt lat="46.574236" lon="6.691834"><ele>866.601</ele><time>2011-09-15T16:23:42Z</time></trkpt>
<trkpt lat="46.574300" lon="6.691970"><ele>867.577</ele><time>2011-09-15T16:23:48Z</time></trkpt>
<trkpt lat="46.574378" lon="6.692120"><ele>868.41</ele><time>2011-09-15T16:23:54Z</time></trkpt>
<trkpt lat="46.574449" lon="6.692289"><ele>868.839</ele><time>2011-09-15T16:23:59Z</time></trkpt>
<trkpt lat="46.574431" lon="6.692481"><ele>869.91</ele><time>2011-09-15T16:24:05Z</time></trkpt>
<trkpt lat="46.574335" lon="6.692783"><ele>871.029</ele><time>2011-09-15T16:24:14Z</time></trkpt>
<trkpt lat="46.574192" lon="6.692944"><ele>871.935</ele><time>2011-09-15T16:24:21Z</time></trkpt>
<trkpt lat="46.574028" lon="6.693056"><ele>873.198</ele><time>2011-09-15T16:24:28Z</time></trkpt>
<trkpt lat="46.573908" lon="6.693169"><ele>874.195</ele><time>2011-09-15T16:24:34Z</time></trkpt>
<trkpt lat="46.573865" lon="6.693274"><ele>875.37</ele><time>2011-09-15T16:24:39Z</time></trkpt>
<trkpt lat="46.573739" lon="6.693369"><ele>876.794</ele><time>2011-09-15T16:24:45Z</time></trkpt>
<trkpt lat="46.573601" lon="6.693383"><ele>877.647</ele><time>2011-09-15T16:24:50Z</time></trkpt>
<trkpt lat="46.573532" lon="6.693311"><ele>878.329</ele><time>2011-09-15T16:24:55Z</time></trkpt>
<trkpt lat="46.573377" lon="6.693203"><ele>878.987</ele><time>2011-09-15T16:25:02Z</time></trkpt>
<trkpt lat="46.573246" lon="6.693146"><ele>879.465</ele><time>2011-09-15T16:25:08Z</time></trkpt>
<trkpt lat="46.573106" lon="6.693110"><ele>880.277</ele><time>2011-09-15T16:25:14Z</time></trkpt>
<trkpt lat="46.572990" lon="6.693051"><ele>880.599</ele><time>2011-09-15T16:25:19Z</time></trkpt>
<trkpt lat="46.572782" lon="6.692997"><ele>881.391</ele><time>2011-09-15T16:25:27Z</time></trkpt>
<trkpt lat="46.572636" lon="6.692971"><ele>881.963</ele><time>2011-09-15T16:25:33Z</time></trkpt>
<trkpt lat="46.572460" lon="6.692971"><ele>882.91</ele><time>2011-09-15T16:25:39Z</time></trkpt>
<trkpt lat="46.572275" lon="6.692960"><ele>883.288</ele><time>2011-09-15T16:25:45Z</time></trkpt>
<trkpt lat="46.572041" lon="6.692928"><ele>883.905</ele><time>2011-09-15T16:25:53Z</time></trkpt>
<trkpt lat="46.571888" lon="6.692923"><ele>884.612</ele><time>2011-09-15T16:25:59Z</time></trkpt>
<trkpt lat="46.571655" lon="6.692866"><ele>884.843</ele><time>2011-09-15T16:26:06Z</time></trkpt>
<trkpt lat="46.571400" lon="6.692819"><ele>884.804</ele><time>2011-09-15T16:26:13Z</time></trkpt>
<trkpt lat="46.571113" lon="6.692762"><ele>883.893</ele><time>2011-09-15T16:26:20Z</time></trkpt>
<trkpt lat="46.571034" lon="6.692770"><ele>883.614</ele><time>2011-09-15T16:26:22Z</time></trkpt>
<trkpt lat="46.570874" lon="6.692953"><ele>883.856</ele><time>2011-09-15T16:26:27Z</time></trkpt>
<trkpt lat="46.570860" lon="6.692998"><ele>883.909</ele><time>2011-09-15T16:26:28Z</time></trkpt>
<trkpt lat="46.570826" lon="6.693317"><ele>884.39</ele><time>2011-09-15T16:26:34Z</time></trkpt>
<trkpt lat="46.570788" lon="6.693612"><ele>885.337</ele><time>2011-09-15T16:26:40Z</time></trkpt>
<trkpt lat="46.570615" lon="6.693719"><ele>886.632</ele><time>2011-09-15T16:26:45Z</time></trkpt>
<trkpt lat="46.570575" lon="6.693717"><ele>886.658</ele><time>2011-09-15T16:26:46Z</time></trkpt>
<trkpt lat="46.570411" lon="6.693722"><ele>887.627</ele><time>2011-09-15T16:26:51Z</time></trkpt>
<trkpt lat="46.570179" lon="6.693712"><ele>888.68</ele><time>2011-09-15T16:26:57Z</time></trkpt>
<trkpt lat="46.569974" lon="6.693703"><ele>889.174</ele><time>2011-09-15T16:27:02Z</time></trkpt>
<trkpt lat="46.569807" lon="6.693703"><ele>889.67</ele><time>2011-09-15T16:27:06Z</time></trkpt>
<trkpt lat="46.569635" lon="6.693716"><ele>889.946</ele><time>2011-09-15T16:27:10Z</time></trkpt>
<trkpt lat="46.569591" lon="6.693715"><ele>889.946</ele><time>2011-09-15T16:27:11Z</time></trkpt>
<trkpt lat="46.569261" lon="6.693670"><ele>889.561</ele><time>2011-09-15T16:27:18Z</time></trkpt>
<trkpt lat="46.568948" lon="6.693544"><ele>888.627</ele><time>2011-09-15T16:27:23Z</time></trkpt>
<trkpt lat="46.568528" lon="6.693367"><ele>887.91</ele><time>2011-09-15T16:27:29Z</time></trkpt>
<trkpt lat="46.568459" lon="6.693339"><ele>887.844</ele><time>2011-09-15T16:27:30Z</time></trkpt>
<trkpt lat="46.568032" lon="6.693172"><ele>886.714</ele><time>2011-09-15T16:27:37Z</time></trkpt>
<trkpt lat="46.567778" lon="6.693161"><ele>886.211</ele><time>2011-09-15T16:27:41Z</time></trkpt>
<trkpt lat="46.567427" lon="6.693289"><ele>884.296</ele><time>2011-09-15T16:27:47Z</time></trkpt>
<trkpt lat="46.567138" lon="6.693441"><ele>882.947</ele><time>2011-09-15T16:27:52Z</time></trkpt>
<trkpt lat="46.566936" lon="6.693493"><ele>883.827</ele><time>2011-09-15T16:27:57Z</time></trkpt>
<trkpt lat="46.566865" lon="6.693561"><ele>884.101</ele><time>2011-09-15T16:28:03Z</time></trkpt>
<trkpt lat="46.566838" lon="6.693567"><ele>884.274</ele><time>2011-09-15T16:28:05Z</time></trkpt>
<trkpt lat="46.566793" lon="6.693580"><ele>884.29</ele><time>2011-09-15T16:28:08Z</time></trkpt>
<trkpt lat="46.566746" lon="6.693582"><ele>884.361</ele><time>2011-09-15T16:28:11Z</time></trkpt>
<trkpt lat="46.566681" lon="6.693696"><ele>884.48</ele><time>2011-09-15T16:28:16Z</time></trkpt>
<trkpt lat="46.566616" lon="6.693696"><ele>884.576</ele><time>2011-09-15T16:28:19Z</time></trkpt>
<trkpt lat="46.566580" lon="6.693667"><ele>884.538</ele><time>2011-09-15T16:28:20Z</time></trkpt>
<trkpt lat="46.566258" lon="6.693374"><ele>883.627</ele><time>2011-09-15T16:28:28Z</time></trkpt>
<trkpt lat="46.565950" lon="6.693176"><ele>881.35</ele><time>2011-09-15T16:28:33Z</time></trkpt>
<trkpt lat="46.565811" lon="6.693107"><ele>879.928</ele><time>2011-09-15T16:28:35Z</time></trkpt>
<trkpt lat="46.565699" lon="6.692914"><ele>878.946</ele><time>2011-09-15T16:28:39Z</time></trkpt>
<trkpt lat="46.565665" lon="6.692760"><ele>878.817</ele><time>2011-09-15T16:28:41Z</time></trkpt>
<trkpt lat="46.565497" lon="6.692271"><ele>877.072</ele><time>2011-09-15T16:28:46Z</time></trkpt>
<trkpt lat="46.565424" lon="6.692036"><ele>876.284</ele><time>2011-09-15T16:28:48Z</time></trkpt>
<trkpt lat="46.565214" lon="6.691638"><ele>874.829</ele><time>2011-09-15T16:28:52Z</time></trkpt>
<trkpt lat="46.565025" lon="6.691191"><ele>872.96</ele><time>2011-09-15T16:28:56Z</time></trkpt>
<trkpt lat="46.564734" lon="6.690297"><ele>869.544</ele><time>2011-09-15T16:29:03Z</time></trkpt>
<trkpt lat="46.564637" lon="6.689881"><ele>869.688</ele><time>2011-09-15T16:29:07Z</time></trkpt>
<trkpt lat="46.564552" lon="6.689730"><ele>870.965</ele><time>2011-09-15T16:29:10Z</time></trkpt>
<trkpt lat="46.564530" lon="6.689663"><ele>872.102</ele><time>2011-09-15T16:29:13Z</time></trkpt>
<trkpt lat="46.564531" lon="6.689663"><ele>872.224</ele><time>2011-09-15T16:29:14Z</time></trkpt>
</trkseg></trk></gpx>